createdAt,value
2023-05-17T00:03:07.036Z,1003.41
2023-05-17T00:08:06.934Z,1003.49
2023-05-17T00:13:06.884Z,1003.49
2023-05-17T00:18:06.998Z,1003.54
2023-05-17T00:23:06.756Z,1003.55
2023-05-17T00:28:06.670Z,1003.62
2023-05-17T00:33:06.643Z,1003.64
2023-05-17T00:38:06.550Z,1003.66
2023-05-17T00:43:06.483Z,1003.74
2023-05-17T00:48:06.457Z,1003.71
2023-05-17T00:53:06.364Z,1003.70
2023-05-17T00:58:06.293Z,1003.70
2023-05-17T01:03:06.297Z,1003.67
2023-05-17T01:08:06.159Z,1003.66
2023-05-17T01:13:06.100Z,1003.70
2023-05-17T01:18:06.149Z,1003.68
2023-05-17T01:23:05.977Z,1003.73
2023-05-17T01:28:05.894Z,1003.75
2023-05-17T01:33:06.030Z,1003.81
2023-05-17T01:38:05.758Z,1003.86
2023-05-17T01:43:05.709Z,1003.87
2023-05-17T01:48:05.755Z,1003.85
2023-05-17T01:53:05.579Z,1003.87
2023-05-17T01:58:05.515Z,1003.94
2023-05-17T02:03:05.500Z,1004.00
2023-05-17T02:08:05.371Z,1004.02
2023-05-17T02:13:05.316Z,1003.98
2023-05-17T02:18:05.311Z,1003.98
2023-05-17T02:23:05.177Z,1004.00
2023-05-17T02:28:05.112Z,1004.03
2023-05-17T02:33:05.136Z,1003.98
2023-05-17T02:38:04.978Z,1004.02
2023-05-17T02:43:04.932Z,1004.08
2023-05-17T02:48:04.879Z,1004.02
2023-05-17T02:53:04.849Z,1004.06
2023-05-17T02:58:04.732Z,1004.03
2023-05-17T03:03:04.786Z,1003.98
2023-05-17T03:08:04.655Z,1004.04
2023-05-17T03:13:04.541Z,1004.07
2023-05-17T03:18:04.581Z,1004.09
2023-05-17T03:23:04.396Z,1004.16
2023-05-17T03:28:04.322Z,1004.18
2023-05-17T03:33:04.350Z,1004.13
2023-05-17T03:38:04.188Z,1004.17
2023-05-17T03:43:04.135Z,1004.22
2023-05-17T03:48:04.083Z,1004.28
2023-05-17T03:53:03.980Z,1004.37
2023-05-17T03:58:03.926Z,1004.40
2023-05-17T04:03:03.866Z,1004.50
2023-05-17T04:08:03.793Z,1004.60
2023-05-17T04:13:03.727Z,1004.59
2023-05-17T04:18:03.748Z,1004.63
2023-05-17T04:23:03.585Z,1004.68
2023-05-17T04:28:03.509Z,1004.76
2023-05-17T04:33:03.540Z,1004.80
2023-05-17T04:38:03.393Z,1004.90
2023-05-17T04:43:03.366Z,1004.97
2023-05-17T04:48:03.332Z,1004.99
2023-05-17T04:53:03.196Z,1004.97
2023-05-17T04:58:03.150Z,1005.09
2023-05-17T05:03:03.196Z,1005.16
2023-05-17T05:08:03.073Z,1005.17
2023-05-17T05:13:02.930Z,1005.19
2023-05-17T05:18:03.005Z,1005.29
2023-05-17T05:23:02.795Z,1005.32
2023-05-17T05:28:02.740Z,1005.38
2023-05-17T05:33:02.874Z,1005.38
2023-05-17T05:38:02.750Z,1005.40
2023-05-17T05:43:02.835Z,1005.45
2023-05-17T05:48:02.564Z,1005.56
2023-05-17T05:53:14.363Z,1005.57
2023-05-17T05:58:03.372Z,1005.50
2023-05-17T06:03:02.316Z,1005.60
2023-05-17T06:08:02.361Z,1005.73
2023-05-17T06:13:02.146Z,1005.74
2023-05-17T06:18:02.204Z,1005.72
2023-05-17T06:23:02.061Z,1005.70
2023-05-17T06:28:01.953Z,1005.62
2023-05-17T06:33:01.948Z,1005.66
2023-05-17T06:38:01.813Z,1005.63
2023-05-17T06:43:01.763Z,1005.65
2023-05-17T06:48:01.818Z,1005.67
2023-05-17T06:53:01.608Z,1005.67
2023-05-17T06:58:01.543Z,1005.73
2023-05-17T07:03:01.697Z,1005.77
2023-05-17T07:08:01.428Z,1005.81
2023-05-17T07:13:01.351Z,1005.91
2023-05-17T07:18:01.360Z,1005.91
2023-05-17T07:23:01.384Z,1005.86
2023-05-17T07:28:01.161Z,1005.83
2023-05-17T07:33:01.149Z,1005.89
2023-05-17T07:38:01.033Z,1005.92
2023-05-17T07:43:01.099Z,1005.97
2023-05-17T07:48:01.073Z,1005.97
2023-05-17T07:53:00.831Z,1006.00
2023-05-17T07:58:00.821Z,1006.01
2023-05-17T08:03:00.752Z,1005.96
2023-05-17T08:08:00.803Z,1005.97
2023-05-17T08:13:00.771Z,1005.96
2023-05-17T08:18:03.759Z,1006.00
2023-05-17T08:23:00.448Z,1006.14
2023-05-17T08:28:00.383Z,1006.16
2023-05-17T08:33:00.485Z,1006.14
2023-05-17T08:38:00.247Z,1006.17
2023-05-17T08:43:00.177Z,1006.15
2023-05-17T08:48:00.177Z,1006.29
2023-05-17T08:53:00.150Z,1006.38
2023-05-17T08:57:59.987Z,1006.48
2023-05-17T09:02:59.976Z,1006.42
2023-05-17T09:07:59.841Z,1006.41
2023-05-17T09:12:59.784Z,1006.34
2023-05-17T09:17:59.813Z,1006.33
2023-05-17T09:22:59.633Z,1006.36
2023-05-17T09:27:59.593Z,1006.41
2023-05-17T09:32:59.523Z,1006.40
2023-05-17T09:37:59.453Z,1006.37
2023-05-17T09:42:59.390Z,1006.46
2023-05-17T09:47:59.485Z,1006.47
2023-05-17T09:52:59.258Z,1006.40
2023-05-17T09:57:59.205Z,1006.43
2023-05-17T10:02:59.180Z,1006.43
2023-05-17T10:07:59.072Z,1006.58
2023-05-17T10:12:59.014Z,1006.62
2023-05-17T10:17:58.944Z,1006.60
2023-05-17T10:22:58.928Z,1006.67
2023-05-17T10:27:58.814Z,1006.65
2023-05-17T10:32:58.895Z,1006.74
2023-05-17T10:37:58.692Z,1006.75
2023-05-17T10:42:58.594Z,1006.84
2023-05-17T10:48:00.935Z,1006.77
2023-05-17T10:52:58.475Z,1006.81
2023-05-17T10:57:58.411Z,1006.80
2023-05-17T11:02:58.379Z,1006.77
2023-05-17T11:07:58.277Z,1006.73
2023-05-17T11:12:58.202Z,1006.72
2023-05-17T11:17:58.273Z,1006.75
2023-05-17T11:22:58.068Z,1006.69
2023-05-17T11:27:58.013Z,1006.68
2023-05-17T11:32:58.098Z,1006.61
2023-05-17T11:37:57.888Z,1006.67
2023-05-17T11:42:57.804Z,1006.73
2023-05-17T11:47:57.807Z,1006.72
2023-05-17T11:52:57.693Z,1006.65
2023-05-17T11:57:57.619Z,1006.62
2023-05-17T12:02:57.573Z,1006.60
2023-05-17T12:07:57.484Z,1006.60
2023-05-17T12:12:57.444Z,1006.58
2023-05-17T12:17:57.510Z,1006.63
2023-05-17T12:22:57.316Z,1006.56
2023-05-17T12:27:57.227Z,1006.57
2023-05-17T12:32:57.262Z,1006.68
2023-05-17T12:37:57.101Z,1006.50
2023-05-17T12:42:57.022Z,1006.54
2023-05-17T12:47:56.992Z,1006.52
2023-05-17T12:52:56.922Z,1006.52
2023-05-17T12:57:56.826Z,1006.48
2023-05-17T13:02:56.841Z,1006.48
2023-05-17T13:07:56.689Z,1006.57
2023-05-17T13:12:56.633Z,1006.59
2023-05-17T13:17:56.653Z,1006.48
2023-05-17T13:22:56.510Z,1006.42
2023-05-17T13:27:56.432Z,1006.50
2023-05-17T13:32:56.570Z,1006.47
2023-05-17T13:37:56.302Z,1006.55
2023-05-17T13:42:56.250Z,1006.44
2023-05-17T13:47:56.246Z,1006.52
2023-05-17T13:52:56.135Z,1006.45
2023-05-17T13:57:56.036Z,1006.40
2023-05-17T14:02:56.100Z,1006.50
2023-05-17T14:07:55.900Z,1006.46
2023-05-17T14:12:55.847Z,1006.50
2023-05-17T14:17:55.924Z,1006.54
2023-05-17T14:22:55.724Z,1006.59
2023-05-17T14:27:55.640Z,1006.63
2023-05-17T14:32:55.626Z,1006.55
2023-05-17T14:37:55.523Z,1006.64
2023-05-17T14:42:55.456Z,1006.72
2023-05-17T14:47:55.510Z,1006.75
2023-05-17T14:52:55.318Z,1006.75
2023-05-17T14:57:55.261Z,1006.72
2023-05-17T15:02:55.248Z,1006.73
2023-05-17T15:07:55.122Z,1006.79
2023-05-17T15:12:55.061Z,1006.83
2023-05-17T15:17:55.021Z,1006.96
2023-05-17T15:22:54.961Z,1006.92
2023-05-17T15:27:54.857Z,1007.02
2023-05-17T15:32:54.939Z,1006.97
2023-05-17T15:37:54.738Z,1006.95
2023-05-17T15:42:54.695Z,1007.00
2023-05-17T15:47:54.616Z,1007.01
2023-05-17T15:52:54.555Z,1006.91
2023-05-17T15:57:54.476Z,1006.90
2023-05-17T16:02:54.433Z,1006.92
2023-05-17T16:07:54.365Z,1006.87
2023-05-17T16:12:54.273Z,1006.84
2023-05-17T16:17:54.345Z,1006.84
2023-05-17T16:22:54.144Z,1006.87
2023-05-17T16:27:54.092Z,1006.87
2023-05-17T16:32:54.046Z,1006.88
2023-05-17T16:37:53.950Z,1006.95
2023-05-17T16:42:53.901Z,1006.91
2023-05-17T16:47:53.852Z,1006.93
2023-05-17T16:52:53.762Z,1006.89
2023-05-17T16:57:53.689Z,1006.90
2023-05-17T17:02:53.709Z,1006.94
2023-05-17T17:07:53.555Z,1007.03
2023-05-17T17:12:53.488Z,1007.03
2023-05-17T17:17:53.441Z,1007.09
2023-05-17T17:22:53.349Z,1007.00
2023-05-17T17:27:53.453Z,1006.99
2023-05-17T17:32:53.345Z,1007.06
2023-05-17T17:37:53.163Z,1007.04
2023-05-17T17:42:53.090Z,1007.16
2023-05-17T17:47:53.070Z,1007.15
2023-05-17T17:52:52.959Z,1007.12
2023-05-17T17:57:52.872Z,1007.06
2023-05-17T18:02:52.957Z,1007.13
2023-05-17T18:07:52.744Z,1007.18
2023-05-17T18:12:52.678Z,1007.27
2023-05-17T18:17:52.836Z,1007.25
2023-05-17T18:22:52.557Z,1007.33
2023-05-17T18:27:52.472Z,1007.42
2023-05-17T18:32:52.524Z,1007.42
2023-05-17T18:37:52.361Z,1007.57
2023-05-17T18:42:52.301Z,1007.62
2023-05-17T18:47:52.225Z,1007.66
2023-05-17T18:52:52.156Z,1007.72
2023-05-17T18:57:52.064Z,1007.79
2023-05-17T19:02:52.083Z,1007.84
2023-05-17T19:07:51.934Z,1007.92
2023-05-17T19:12:51.890Z,1007.98
2023-05-17T19:17:51.928Z,1007.97
2023-05-17T19:22:51.765Z,1008.06
2023-05-17T19:27:51.705Z,1008.16
2023-05-17T19:32:51.711Z,1008.13
2023-05-17T19:37:51.560Z,1008.23
2023-05-17T19:42:51.515Z,1008.28
2023-05-17T19:47:51.448Z,1008.29
2023-05-17T19:52:51.371Z,1008.33
2023-05-17T19:57:51.293Z,1008.28
2023-05-17T20:02:51.381Z,1008.34
2023-05-17T20:07:51.156Z,1008.42
2023-05-17T20:12:51.109Z,1008.45
2023-05-17T20:17:51.076Z,1008.49
2023-05-17T20:22:50.972Z,1008.51
2023-05-17T20:27:50.898Z,1008.54
2023-05-17T20:32:50.857Z,1008.58
2023-05-17T20:37:50.769Z,1008.64
2023-05-17T20:42:50.699Z,1008.72
2023-05-17T20:47:50.686Z,1008.77
2023-05-17T20:52:50.579Z,1008.76
2023-05-17T20:57:50.491Z,1008.81
2023-05-17T21:02:50.597Z,1008.84
2023-05-17T21:07:50.374Z,1008.81
2023-05-17T21:12:50.344Z,1008.81
2023-05-17T21:17:50.314Z,1008.88
2023-05-17T21:22:50.184Z,1008.90
2023-05-17T21:27:50.110Z,1008.85
2023-05-17T21:32:50.109Z,1008.92
2023-05-17T21:37:49.979Z,1008.89
2023-05-17T21:42:49.931Z,1008.87
2023-05-17T21:47:49.935Z,1008.92
2023-05-17T21:52:49.775Z,1008.89
2023-05-17T21:57:49.697Z,1008.86
2023-05-17T22:02:49.723Z,1008.85
2023-05-17T22:07:49.576Z,1008.94
2023-05-17T22:12:49.525Z,1008.94
2023-05-17T22:17:52.860Z,1008.96
2023-05-17T22:22:49.380Z,1008.98
2023-05-17T22:27:49.324Z,1009.03
2023-05-17T22:32:49.263Z,1009.08
2023-05-17T22:37:49.184Z,1009.12
2023-05-17T22:42:49.125Z,1009.09
2023-05-17T22:47:49.080Z,1009.15
2023-05-17T22:52:49.017Z,1009.17
2023-05-17T22:57:48.934Z,1009.16
2023-05-17T23:02:48.977Z,1009.24
2023-05-17T23:07:48.803Z,1009.24
2023-05-17T23:12:50.227Z,1009.23
2023-05-17T23:17:48.695Z,1009.26
2023-05-17T23:22:48.625Z,1009.30
2023-05-17T23:27:48.530Z,1009.29
2023-05-17T23:32:48.521Z,1009.31
2023-05-17T23:37:48.410Z,1009.28
2023-05-17T23:42:48.373Z,1009.35
2023-05-17T23:47:48.341Z,1009.38
2023-05-17T23:52:48.216Z,1009.31
2023-05-17T23:57:48.149Z,1009.39
